HETCH HETCHY (HTH)

Elevation: 3870' · TUOLUMNE R basin · Operator: Hetch Hetchy Water and Power

Provisional data, subject to change.
Query executed Sunday at 21:57:09   clock

Select a sensor type for a plot of data.
Note: Reservoir Flows are daily averages.

Earlier

Date RES ELE    STORAGE    RES CHG    OUTFLOW    INFLOW    PPT INC    RAIN    PPTINC4   
 FEET   AF   AF   CFS   CFS   INCHES   INCHES   INCHES  
01/08/2016 -- 259230 -- 361 -- 0.00 18.22 0.06
01/09/2016 -- 259580 -- 113 -- 0.02 18.24 0.00
01/10/2016 -- 260105 -- 209 -- 0.00 18.24 0.03
01/11/2016 -- 260455 -- 98 -- 0.00 18.24 0.00
01/12/2016 -- 260805 -- 77 -- 0.00 18.24 0.00
01/13/2016 -- 261155 -- 74 -- 0.01 18.25 0.00
01/14/2016 -- 261855 -- 74 -- 0.12 18.37 0.19
01/15/2016 -- 262380 -- 74 -- 0.76 19.13 0.47
01/16/2016 -- 263080 -- 75 -- 0.25 19.38 0.22
01/17/2016 -- 263960 -- 75 -- 0.02 19.40 0.13
01/18/2016 -- 264488 -- 75 -- 0.89 20.29 0.04
01/19/2016 -- 265368 -- 79 -- 0.35 20.64 0.83
01/20/2016 -- 266954 -- 86 -- 0.67 21.31 0.96
01/21/2016 -- 268016 -- 78 -- 0.00 21.31 0.00
01/22/2016 -- 268724 -- 68 -- 0.00 21.31 0.00
01/23/2016 -- 270852 -- 61 -- 1.48 22.79 0.83
01/24/2016 -- 271920 -- 67 -- 0.05 22.84 0.44
01/25/2016 -- 272810 -- 65 -- 0.00 22.84 0.00
01/26/2016 -- 273700 890 64 -- 0.00 22.84 0.00
01/27/2016 -- 274237 537 73 -- 0.00 22.84 0.00
01/28/2016 -- 275311 -- 92 -- 0.00 22.84 0.00
01/29/2016 -- 275490 -- 95 -- 0.02 22.86 0.01
01/30/2016 -- 278010 -- 99 -- 1.40 24.26 0.77
01/31/2016 -- 281443 -- 108 -- 0.76 25.02 0.79
02/01/2016 -- 282348 -- 276 -- 0.38 25.40 0.63
02/02/2016 -- 281624 -- 986 -- 0.00 25.40 0.00
02/03/2016 -- 280900 -- 980 -- 0.00 25.40 0.00
02/04/2016 -- 279995 -- 977 -- 0.00 25.40 0.00
02/05/2016 -- -- -- -- -- 0.00 25.40 0.00
02/06/2016 -- -- -- -- -- -- 25.40 0.00
02/07/2016 -- -- -- -- -- -- -- 0.00

Later | Latest

Warning! This data is preliminary and subject to revision.

Show HTH Map | Plot HTH Data | 1 Month HTH Data | Real-Time HTH Data | HTH Info